createdAt,value
2019-02-22T00:00:42.220Z,1006.84
2019-02-22T00:01:42.267Z,1006.82
2019-02-22T00:02:42.299Z,1006.82
2019-02-22T00:03:42.341Z,1006.85
2019-02-22T00:04:42.381Z,1006.88
2019-02-22T00:05:42.425Z,1006.85
2019-02-22T00:06:42.466Z,1006.84
2019-02-22T00:07:42.500Z,1006.79
2019-02-22T00:08:42.542Z,1006.85
2019-02-22T00:09:49.353Z,1006.86
2019-02-22T00:10:42.621Z,1006.82
2019-02-22T00:11:42.663Z,1006.77
2019-02-22T00:12:42.701Z,1006.81
2019-02-22T00:13:42.759Z,1006.78
2019-02-22T00:14:42.786Z,1006.78
2019-02-22T00:15:42.824Z,1006.82
2019-02-22T00:16:42.864Z,1006.82
2019-02-22T00:17:42.903Z,1006.80
2019-02-22T00:18:42.954Z,1006.82
2019-02-22T00:19:42.985Z,1006.86
2019-02-22T00:20:43.025Z,1006.88
2019-02-22T00:21:43.064Z,1006.91
2019-02-22T00:22:43.112Z,1006.93
2019-02-22T00:23:43.155Z,1006.90
2019-02-22T00:24:43.186Z,1006.92
2019-02-22T00:25:43.231Z,1006.94
2019-02-22T00:26:43.272Z,1006.96
2019-02-22T00:27:43.308Z,1006.96
2019-02-22T00:28:43.348Z,1006.96
2019-02-22T00:29:43.390Z,1006.97
2019-02-22T00:30:43.429Z,1006.98
2019-02-22T00:31:43.471Z,1007.03
2019-02-22T00:32:43.510Z,1007.06
2019-02-22T00:33:43.566Z,1007.05
2019-02-22T00:34:43.604Z,1007.11
2019-02-22T00:35:43.632Z,1007.09
2019-02-22T00:36:43.789Z,1007.10
2019-02-22T00:37:43.710Z,1007.13
2019-02-22T00:38:43.752Z,1007.12
2019-02-22T00:39:43.792Z,1007.16
2019-02-22T00:40:43.833Z,1007.14
2019-02-22T00:41:43.882Z,1007.16
2019-02-22T00:42:43.913Z,1007.14
2019-02-22T00:43:43.956Z,1007.16
2019-02-22T00:44:43.993Z,1007.15
2019-02-22T00:45:44.038Z,1007.14
2019-02-22T00:46:44.082Z,1007.19
2019-02-22T00:47:44.116Z,1007.23
2019-02-22T00:48:44.155Z,1007.19
2019-02-22T00:49:44.198Z,1007.21
2019-02-22T00:50:44.238Z,1007.18
2019-02-22T00:51:44.276Z,1007.18
2019-02-22T00:52:44.316Z,1007.17
2019-02-22T00:53:44.361Z,1007.17
2019-02-22T00:54:44.398Z,1007.20
2019-02-22T00:55:44.449Z,1007.15
2019-02-22T00:56:44.478Z,1007.15
2019-02-22T00:57:44.580Z,1007.16
2019-02-22T00:58:44.563Z,1007.18
2019-02-22T00:59:44.604Z,1007.19
2019-02-22T01:00:44.641Z,1007.19
2019-02-22T01:01:44.679Z,1007.19
2019-02-22T01:02:44.723Z,1007.14
2019-02-22T01:03:44.763Z,1007.18
2019-02-22T01:04:44.817Z,1007.20
2019-02-22T01:05:44.841Z,1007.21
2019-02-22T01:06:44.894Z,1007.15
2019-02-22T01:07:44.923Z,1007.16
2019-02-22T01:08:44.959Z,1007.13
2019-02-22T01:09:45.001Z,1007.18
2019-02-22T01:10:45.042Z,1007.15
2019-02-22T01:11:45.087Z,1007.15
2019-02-22T01:12:45.123Z,1007.18
2019-02-22T01:13:45.175Z,1007.20
2019-02-22T01:14:45.202Z,1007.14
2019-02-22T01:15:45.242Z,1007.14
2019-02-22T01:16:45.287Z,1007.14
2019-02-22T01:17:45.328Z,1007.17
2019-02-22T01:18:45.470Z,1007.15
2019-02-22T01:19:45.406Z,1007.17
2019-02-22T01:20:54.000Z,1007.21
2019-02-22T01:21:45.488Z,1007.21
2019-02-22T01:22:45.522Z,1007.27
2019-02-22T01:23:45.563Z,1007.23
2019-02-22T01:24:45.603Z,1007.25
2019-02-22T01:25:45.644Z,1007.30
2019-02-22T01:26:45.683Z,1007.26
2019-02-22T01:27:45.875Z,1007.32
2019-02-22T01:28:45.763Z,1007.32
2019-02-22T01:29:45.803Z,1007.35
2019-02-22T01:30:45.843Z,1007.35
2019-02-22T01:31:45.883Z,1007.39
2019-02-22T01:32:45.927Z,1007.43
2019-02-22T01:33:46.070Z,1007.42
2019-02-22T01:34:46.004Z,1007.44
2019-02-22T01:35:46.043Z,1007.40
2019-02-22T01:36:46.083Z,1007.44
2019-02-22T01:37:46.123Z,1007.49
2019-02-22T01:38:46.164Z,1007.50
2019-02-22T01:39:46.203Z,1007.52
2019-02-22T01:40:46.243Z,1007.52
2019-02-22T01:41:46.283Z,1007.53
2019-02-22T01:42:46.326Z,1007.52
2019-02-22T01:43:46.364Z,1007.54
2019-02-22T01:44:46.403Z,1007.53
2019-02-22T01:45:46.461Z,1007.59
2019-02-22T01:46:46.485Z,1007.58
2019-02-22T01:47:46.531Z,1007.63
2019-02-22T01:48:46.563Z,1007.62
2019-02-22T01:49:46.607Z,1007.65
2019-02-22T01:50:46.643Z,1007.66
2019-02-22T01:51:46.687Z,1007.64
2019-02-22T01:52:46.721Z,1007.64
2019-02-22T01:53:46.763Z,1007.64
2019-02-22T01:54:46.803Z,1007.61
2019-02-22T01:55:46.844Z,1007.64
2019-02-22T01:56:46.888Z,1007.68
2019-02-22T01:57:46.928Z,1007.65
2019-02-22T01:58:49.010Z,1007.68
2019-02-22T01:59:47.014Z,1007.70
2019-02-22T02:00:47.043Z,1007.73
2019-02-22T02:01:47.084Z,1007.68
2019-02-22T02:02:47.126Z,1007.69
2019-02-22T02:03:47.164Z,1007.69
2019-02-22T02:04:47.203Z,1007.68
2019-02-22T02:05:47.244Z,1007.75
2019-02-22T02:06:47.282Z,1007.70
2019-02-22T02:07:47.323Z,1007.72
2019-02-22T02:08:47.362Z,1007.69
2019-02-22T02:09:47.402Z,1007.71
2019-02-22T02:10:54.068Z,1007.74
2019-02-22T02:11:47.483Z,1007.69
2019-02-22T02:12:47.522Z,1007.73
2019-02-22T02:13:47.562Z,1007.71
2019-02-22T02:14:47.623Z,1007.74
2019-02-22T02:15:47.642Z,1007.77
2019-02-22T02:16:47.682Z,1007.80
2019-02-22T02:17:47.721Z,1007.76
2019-02-22T02:18:47.764Z,1007.77
2019-02-22T02:19:47.802Z,1007.75
2019-02-22T02:20:47.881Z,1007.79
2019-02-22T02:21:47.884Z,1007.79
2019-02-22T02:22:47.921Z,1007.78
2019-02-22T02:23:47.962Z,1007.74
2019-02-22T02:24:48.000Z,1007.70
2019-02-22T02:25:48.045Z,1007.72
2019-02-22T02:26:48.081Z,1007.74
2019-02-22T02:27:48.136Z,1007.74
2019-02-22T02:28:48.161Z,1007.75
2019-02-22T02:29:48.209Z,1007.74
2019-02-22T02:30:48.241Z,1007.71
2019-02-22T02:31:48.299Z,1007.69
2019-02-22T02:32:48.329Z,1007.73
2019-02-22T02:33:48.361Z,1007.74
2019-02-22T02:34:48.406Z,1007.76
2019-02-22T02:35:48.438Z,1007.78
2019-02-22T02:36:48.479Z,1007.79
2019-02-22T02:37:48.519Z,1007.83
2019-02-22T02:38:48.558Z,1007.81
2019-02-22T02:39:48.605Z,1007.80
2019-02-22T02:40:48.647Z,1007.81
2019-02-22T02:41:48.680Z,1007.86
2019-02-22T02:42:48.716Z,1007.87
2019-02-22T02:43:48.757Z,1007.84
2019-02-22T02:44:48.795Z,1007.82
2019-02-22T02:45:48.836Z,1007.90
2019-02-22T02:46:48.880Z,1007.92
2019-02-22T02:47:48.923Z,1007.96
2019-02-22T02:48:48.956Z,1007.91
2019-02-22T02:49:48.995Z,1007.92
2019-02-22T02:50:49.044Z,1007.92
2019-02-22T02:51:49.075Z,1007.92
2019-02-22T02:52:49.122Z,1007.91
2019-02-22T02:53:49.153Z,1007.88
2019-02-22T02:54:49.198Z,1007.88
2019-02-22T02:55:49.234Z,1007.87
2019-02-22T02:56:49.289Z,1007.82
2019-02-22T02:57:49.314Z,1007.86
2019-02-22T02:58:49.352Z,1007.89
2019-02-22T02:59:49.396Z,1007.92
2019-02-22T03:00:49.431Z,1007.94
2019-02-22T03:01:49.479Z,1007.97
2019-02-22T03:02:49.514Z,1007.97
2019-02-22T03:03:49.550Z,1007.97
2019-02-22T03:04:49.640Z,1007.93
2019-02-22T03:05:49.631Z,1007.97
2019-02-22T03:06:49.677Z,1007.94
2019-02-22T03:07:49.708Z,1007.99
2019-02-22T03:08:49.749Z,1007.99
2019-02-22T03:09:49.786Z,1008.01
2019-02-22T03:10:49.834Z,1007.97
2019-02-22T03:11:49.917Z,1007.96
2019-02-22T03:12:49.906Z,1008.02
2019-02-22T03:13:49.946Z,1008.05
2019-02-22T03:14:49.988Z,1008.04
2019-02-22T03:15:50.026Z,1008.07
2019-02-22T03:16:50.075Z,1008.06
2019-02-22T03:17:50.106Z,1008.14
2019-02-22T03:18:50.145Z,1008.12
2019-02-22T03:19:50.193Z,1008.16
2019-02-22T03:20:50.230Z,1008.20
2019-02-22T03:21:50.264Z,1008.20
2019-02-22T03:22:50.306Z,1008.16
2019-02-22T03:23:50.342Z,1008.16
2019-02-22T03:24:53.603Z,1008.21
2019-02-22T03:25:50.422Z,1008.26
2019-02-22T03:26:50.463Z,1008.20
2019-02-22T03:27:50.511Z,1008.20
2019-02-22T03:28:50.549Z,1008.21
2019-02-22T03:29:50.582Z,1008.26
2019-02-22T03:30:50.744Z,1008.25
2019-02-22T03:31:50.663Z,1008.28
2019-02-22T03:32:50.715Z,1008.23
2019-02-22T03:33:50.741Z,1008.25
2019-02-22T03:34:50.780Z,1008.23
2019-02-22T03:35:50.820Z,1008.23
2019-02-22T03:36:50.895Z,1008.29
2019-02-22T03:37:50.898Z,1008.26
2019-02-22T03:38:50.938Z,1008.22
2019-02-22T03:39:50.986Z,1008.26
2019-02-22T03:40:51.017Z,1008.29
2019-02-22T03:41:51.054Z,1008.32
2019-02-22T03:42:51.104Z,1008.30
2019-02-22T03:43:51.142Z,1008.33
2019-02-22T03:44:51.173Z,1008.33
2019-02-22T03:45:51.215Z,1008.34
2019-02-22T03:46:51.254Z,1008.33
2019-02-22T03:47:51.303Z,1008.40
2019-02-22T03:48:51.332Z,1008.38
2019-02-22T03:49:51.383Z,1008.39
2019-02-22T03:50:51.417Z,1008.39
2019-02-22T03:51:51.498Z,1008.42
2019-02-22T03:52:51.489Z,1008.47
2019-02-22T03:53:51.531Z,1008.47
2019-02-22T03:54:51.574Z,1008.49
2019-02-22T03:55:51.611Z,1008.47
2019-02-22T03:56:51.651Z,1008.50
2019-02-22T03:57:51.693Z,1008.50
2019-02-22T03:58:51.733Z,1008.47
2019-02-22T03:59:51.775Z,1008.50
2019-02-22T04:00:51.811Z,1008.45
2019-02-22T04:01:51.877Z,1008.47
2019-02-22T04:02:51.891Z,1008.48
2019-02-22T04:03:51.932Z,1008.50
2019-02-22T04:04:51.972Z,1008.48
2019-02-22T04:05:52.057Z,1008.51
2019-02-22T04:06:52.054Z,1008.54
2019-02-22T04:07:52.091Z,1008.56
2019-02-22T04:08:52.127Z,1008.57
2019-02-22T04:09:52.181Z,1008.56
2019-02-22T04:10:52.205Z,1008.61
2019-02-22T04:11:52.246Z,1008.60
2019-02-22T04:12:52.337Z,1008.62
2019-02-22T04:13:52.341Z,1008.63
2019-02-22T04:14:52.365Z,1008.66
2019-02-22T04:15:52.416Z,1008.62
2019-02-22T04:16:52.442Z,1008.68
2019-02-22T04:17:52.488Z,1008.67
2019-02-22T04:18:52.523Z,1008.66
2019-02-22T04:19:52.564Z,1008.68
2019-02-22T04:20:52.602Z,1008.67
2019-02-22T04:21:52.641Z,1008.65
2019-02-22T04:22:52.681Z,1008.68
2019-02-22T04:23:52.722Z,1008.72
2019-02-22T04:24:52.760Z,1008.70
2019-02-22T04:25:52.803Z,1008.79
2019-02-22T04:26:52.890Z,1008.74
2019-02-22T04:27:52.881Z,1008.73
2019-02-22T04:28:52.919Z,1008.78
2019-02-22T04:29:52.959Z,1008.73
2019-02-22T04:30:53.011Z,1008.81
2019-02-22T04:31:53.044Z,1008.81
2019-02-22T04:32:53.080Z,1008.76
2019-02-22T04:33:53.118Z,1008.82
2019-02-22T04:34:53.159Z,1008.80
2019-02-22T04:35:53.209Z,1008.82
2019-02-22T04:36:53.236Z,1008.81
2019-02-22T04:37:53.275Z,1008.82
2019-02-22T04:38:53.317Z,1008.79
2019-02-22T04:39:53.354Z,1008.84
2019-02-22T04:40:53.394Z,1008.87
2019-02-22T04:41:58.054Z,1008.85
2019-02-22T04:42:53.475Z,1008.93
2019-02-22T04:43:53.515Z,1008.91
2019-02-22T04:44:53.552Z,1008.86
2019-02-22T04:45:53.593Z,1008.87
2019-02-22T04:46:53.638Z,1008.87
2019-02-22T04:47:53.675Z,1008.89
2019-02-22T04:48:53.728Z,1008.94
2019-02-22T04:49:53.751Z,1008.91
2019-02-22T04:50:53.793Z,1008.93
2019-02-22T04:51:53.831Z,1008.98
2019-02-22T04:52:53.870Z,1008.96
2019-02-22T04:53:53.910Z,1008.95
2019-02-22T04:54:53.949Z,1008.95
2019-02-22T04:55:53.988Z,1008.98
2019-02-22T04:56:54.031Z,1008.94
2019-02-22T04:57:54.068Z,1008.96
2019-02-22T04:58:54.111Z,1008.97
2019-02-22T04:59:54.149Z,1008.97
2019-02-22T05:00:54.191Z,1008.97
2019-02-22T05:01:54.235Z,1008.96
2019-02-22T05:02:54.267Z,1008.94
2019-02-22T05:03:54.308Z,1008.97
2019-02-22T05:04:54.352Z,1008.90
2019-02-22T05:05:54.465Z,1008.95
2019-02-22T05:06:54.426Z,1008.96
2019-02-22T05:07:54.465Z,1008.95
2019-02-22T05:08:54.503Z,1008.97
2019-02-22T05:09:54.544Z,1008.98
2019-02-22T05:10:54.593Z,1008.97
2019-02-22T05:11:54.622Z,1008.91
2019-02-22T05:12:54.662Z,1008.95
2019-02-22T05:13:54.726Z,1008.98
2019-02-22T05:14:54.742Z,1009.03
2019-02-22T05:15:54.784Z,1009.05
2019-02-22T05:16:54.839Z,1009.06
2019-02-22T05:17:54.860Z,1009.07
2019-02-22T05:18:54.905Z,1009.05
2019-02-22T05:19:54.939Z,1009.07
2019-02-22T05:20:54.977Z,1009.08
2019-02-22T05:21:55.025Z,1009.08
2019-02-22T05:23:03.267Z,1009.11
2019-02-22T05:23:55.103Z,1009.10
2019-02-22T05:24:55.141Z,1009.15
2019-02-22T05:25:55.180Z,1009.14
2019-02-22T05:26:55.224Z,1009.15
2019-02-22T05:27:55.253Z,1009.15
2019-02-22T05:28:55.294Z,1009.14
2019-02-22T05:29:55.337Z,1009.15
2019-02-22T05:30:55.375Z,1009.19
2019-02-22T05:31:55.412Z,1009.22
2019-02-22T05:32:55.453Z,1009.24
2019-02-22T05:33:55.502Z,1009.25
2019-02-22T05:34:55.533Z,1009.22
2019-02-22T05:35:55.568Z,1009.24
2019-02-22T05:36:55.618Z,1009.22
2019-02-22T05:37:55.646Z,1009.22
2019-02-22T05:38:55.704Z,1009.25
2019-02-22T05:39:55.735Z,1009.25
2019-02-22T05:40:55.766Z,1009.30
2019-02-22T05:41:55.814Z,1009.26
2019-02-22T05:42:55.844Z,1009.28
2019-02-22T05:43:55.897Z,1009.27
2019-02-22T05:44:55.921Z,1009.29
2019-02-22T05:45:55.960Z,1009.26
2019-02-22T05:47:00.341Z,1009.29
2019-02-22T05:47:56.044Z,1009.29
2019-02-22T05:48:56.089Z,1009.26
2019-02-22T05:49:56.119Z,1009.31
2019-02-22T05:50:56.158Z,1009.28
2019-02-22T05:51:56.199Z,1009.24
2019-02-22T05:52:56.237Z,1009.30
2019-02-22T05:53:56.277Z,1009.30
2019-02-22T05:54:56.315Z,1009.30
2019-02-22T05:55:56.364Z,1009.31
2019-02-22T05:56:56.393Z,1009.30
2019-02-22T05:57:56.435Z,1009.35
2019-02-22T05:58:56.473Z,1009.37
2019-02-22T05:59:56.511Z,1009.40
2019-02-22T06:00:56.553Z,1009.46
2019-02-22T06:01:56.590Z,1009.46
2019-02-22T06:02:56.630Z,1009.48
2019-02-22T06:03:56.668Z,1009.51
2019-02-22T06:04:56.707Z,1009.51
2019-02-22T06:05:56.747Z,1009.55
2019-02-22T06:06:56.789Z,1009.57
2019-02-22T06:07:56.976Z,1009.56
2019-02-22T06:08:56.864Z,1009.55
2019-02-22T06:09:56.902Z,1009.61
2019-02-22T06:10:56.943Z,1009.61
2019-02-22T06:11:56.983Z,1009.56
2019-02-22T06:12:57.022Z,1009.67
2019-02-22T06:13:57.059Z,1009.67
2019-02-22T06:14:57.106Z,1009.64
2019-02-22T06:15:57.142Z,1009.66
2019-02-22T06:16:57.187Z,1009.63
2019-02-22T06:17:57.223Z,1009.64
2019-02-22T06:18:57.257Z,1009.63
2019-02-22T06:19:57.294Z,1009.66
2019-02-22T06:20:57.338Z,1009.62
2019-02-22T06:21:57.372Z,1009.67
2019-02-22T06:22:57.412Z,1009.74
2019-02-22T06:23:57.459Z,1009.75
2019-02-22T06:24:57.494Z,1009.75
2019-02-22T06:25:57.551Z,1009.73
2019-02-22T06:26:57.573Z,1009.73
2019-02-22T06:27:57.607Z,1009.74
2019-02-22T06:28:57.647Z,1009.73
2019-02-22T06:29:57.696Z,1009.81
2019-02-22T06:30:57.725Z,1009.80
2019-02-22T06:31:57.765Z,1009.76
2019-02-22T06:32:57.805Z,1009.84
2019-02-22T06:33:57.844Z,1009.83
2019-02-22T06:34:57.891Z,1009.83
2019-02-22T06:35:57.923Z,1009.88
2019-02-22T06:37:01.916Z,1009.88
2019-02-22T06:37:58.002Z,1009.90
2019-02-22T06:38:58.044Z,1009.95
2019-02-22T06:39:58.083Z,1009.96
2019-02-22T06:40:58.119Z,1009.98
2019-02-22T06:41:58.162Z,1010.04
2019-02-22T06:42:58.196Z,1010.10
2019-02-22T06:43:58.236Z,1010.09
2019-02-22T06:44:58.273Z,1010.12
2019-02-22T06:45:58.318Z,1010.14
2019-02-22T06:46:58.352Z,1010.21
2019-02-22T06:47:58.393Z,1010.26
2019-02-22T06:48:58.435Z,1010.24
2019-02-22T06:49:58.475Z,1010.27
2019-02-22T06:50:58.511Z,1010.33
2019-02-22T06:51:58.551Z,1010.31
2019-02-22T06:52:58.589Z,1010.37
2019-02-22T06:53:58.629Z,1010.35
2019-02-22T06:54:58.667Z,1010.41
2019-02-22T06:55:58.708Z,1010.45
2019-02-22T06:56:58.751Z,1010.42
2019-02-22T06:57:58.790Z,1010.46
2019-02-22T06:58:58.828Z,1010.48
2019-02-22T06:59:58.865Z,1010.52
2019-02-22T07:00:58.904Z,1010.52
2019-02-22T07:01:58.945Z,1010.56
2019-02-22T07:02:58.984Z,1010.60
2019-02-22T07:03:59.031Z,1010.57
2019-02-22T07:04:59.066Z,1010.61
2019-02-22T07:05:59.105Z,1010.55
2019-02-22T07:06:59.179Z,1010.59
2019-02-22T07:07:59.180Z,1010.64
2019-02-22T07:08:59.227Z,1010.67
2019-02-22T07:09:59.257Z,1010.68
2019-02-22T07:10:59.301Z,1010.69
2019-02-22T07:11:59.338Z,1010.65
2019-02-22T07:12:59.377Z,1010.70
2019-02-22T07:13:59.418Z,1010.70
2019-02-22T07:14:59.456Z,1010.70
2019-02-22T07:15:59.496Z,1010.74
2019-02-22T07:16:59.542Z,1010.66
2019-02-22T07:17:59.573Z,1010.64
2019-02-22T07:18:59.614Z,1010.68
2019-02-22T07:19:59.652Z,1010.70
2019-02-22T07:20:59.693Z,1010.67
2019-02-22T07:21:59.735Z,1010.74
2019-02-22T07:22:59.781Z,1010.75
2019-02-22T07:24:02.546Z,1010.75
2019-02-22T07:24:59.860Z,1010.74
2019-02-22T07:25:59.899Z,1010.80
2019-02-22T07:26:59.930Z,1010.87
2019-02-22T07:27:59.977Z,1010.87
2019-02-22T07:29:00.010Z,1010.87
2019-02-22T07:30:00.052Z,1010.84
2019-02-22T07:31:00.092Z,1010.91
2019-02-22T07:32:38.760Z,1010.90
2019-02-22T07:33:00.172Z,1010.89
2019-02-22T07:34:00.219Z,1010.90
2019-02-22T07:35:00.463Z,1010.90
2019-02-22T07:36:00.290Z,1010.92
2019-02-22T07:37:00.334Z,1010.90
2019-02-22T07:38:00.377Z,1010.97
2019-02-22T07:39:00.410Z,1010.94
2019-02-22T07:40:00.458Z,1011.01
2019-02-22T07:41:00.490Z,1011.04
2019-02-22T07:42:00.531Z,1011.10
2019-02-22T07:43:08.093Z,1011.12
2019-02-22T07:44:00.608Z,1011.14
2019-02-22T07:45:00.667Z,1011.19
2019-02-22T07:46:00.688Z,1011.22
2019-02-22T07:47:00.729Z,1011.25
2019-02-22T07:48:00.781Z,1011.26
2019-02-22T07:49:00.807Z,1011.26
2019-02-22T07:50:00.850Z,1011.28
2019-02-22T07:51:00.894Z,1011.26
2019-02-22T07:52:00.930Z,1011.27
2019-02-22T07:53:00.972Z,1011.31
2019-02-22T07:54:01.018Z,1011.33
2019-02-22T07:55:01.071Z,1011.34
2019-02-22T07:56:01.091Z,1011.37
2019-02-22T07:57:01.135Z,1011.40
2019-02-22T07:58:01.171Z,1011.40
2019-02-22T07:59:03.121Z,1011.39
2019-02-22T08:00:01.252Z,1011.42
2019-02-22T08:01:01.292Z,1011.37
2019-02-22T08:02:01.332Z,1011.45
2019-02-22T08:03:01.375Z,1011.41
2019-02-22T08:04:01.414Z,1011.41
2019-02-22T08:05:01.452Z,1011.45
2019-02-22T08:06:01.493Z,1011.43
2019-02-22T08:07:01.533Z,1011.43
2019-02-22T08:08:01.571Z,1011.43
2019-02-22T08:09:01.612Z,1011.41
2019-02-22T08:10:01.651Z,1011.46
2019-02-22T08:11:01.692Z,1011.53
2019-02-22T08:12:01.736Z,1011.52
2019-02-22T08:13:01.779Z,1011.52
2019-02-22T08:14:01.813Z,1011.54
2019-02-22T08:15:01.850Z,1011.58
2019-02-22T08:16:01.895Z,1011.62
2019-02-22T08:17:01.933Z,1011.65
2019-02-22T08:18:01.972Z,1011.68
2019-02-22T08:19:02.160Z,1011.72
2019-02-22T08:20:02.054Z,1011.76
2019-02-22T08:21:02.115Z,1011.79
2019-02-22T08:22:03.568Z,1011.76
2019-02-22T08:23:02.173Z,1011.80
2019-02-22T08:24:02.213Z,1011.82
2019-02-22T08:25:02.256Z,1011.86
2019-02-22T08:26:02.293Z,1011.86
2019-02-22T08:27:02.333Z,1011.91
2019-02-22T08:28:02.378Z,1011.92
2019-02-22T08:29:02.413Z,1011.92
2019-02-22T08:30:02.453Z,1011.92
2019-02-22T08:31:02.494Z,1011.90
2019-02-22T08:32:02.542Z,1011.97
2019-02-22T08:33:02.575Z,1011.97
2019-02-22T08:34:02.617Z,1011.95
2019-02-22T08:35:02.661Z,1011.92
2019-02-22T08:36:02.696Z,1011.92
2019-02-22T08:37:02.741Z,1011.95
2019-02-22T08:38:02.777Z,1011.97
2019-02-22T08:39:02.817Z,1011.97
2019-02-22T08:40:02.872Z,1011.96
2019-02-22T08:41:02.897Z,1011.97
2019-02-22T08:42:02.951Z,1011.99
2019-02-22T08:43:02.977Z,1011.99
2019-02-22T08:44:03.153Z,1012.03
2019-02-22T08:45:03.059Z,1011.99
2019-02-22T08:46:03.099Z,1011.99
2019-02-22T08:47:03.139Z,1011.99
2019-02-22T08:48:03.193Z,1012.03
2019-02-22T08:49:03.226Z,1012.00
2019-02-22T08:50:03.265Z,1012.04
2019-02-22T08:51:03.324Z,1012.04
2019-02-22T08:52:03.349Z,1012.05
2019-02-22T08:53:03.383Z,1012.03
2019-02-22T08:54:03.427Z,1012.06
2019-02-22T08:55:03.476Z,1012.10
2019-02-22T08:56:03.507Z,1012.10
2019-02-22T08:57:03.547Z,1012.07
2019-02-22T08:58:03.690Z,1012.11
2019-02-22T08:59:03.632Z,1012.15
2019-02-22T09:00:03.668Z,1012.19
2019-02-22T09:01:03.712Z,1012.20
2019-02-22T09:02:03.750Z,1012.19
2019-02-22T09:03:03.792Z,1012.22
2019-02-22T09:04:03.837Z,1012.21
2019-02-22T09:05:03.988Z,1012.26
2019-02-22T09:06:03.922Z,1012.27
2019-02-22T09:07:03.953Z,1012.29
2019-02-22T09:08:04.001Z,1012.30
2019-02-22T09:09:04.041Z,1012.31
2019-02-22T09:10:04.085Z,1012.39
2019-02-22T09:11:04.129Z,1012.36
2019-02-22T09:12:04.258Z,1012.34
2019-02-22T09:13:04.204Z,1012.37
2019-02-22T09:14:04.246Z,1012.34
2019-02-22T09:15:04.280Z,1012.36
2019-02-22T09:16:04.325Z,1012.36
2019-02-22T09:17:04.360Z,1012.37
2019-02-22T09:18:04.398Z,1012.38
2019-02-22T09:19:04.439Z,1012.44
2019-02-22T09:20:04.492Z,1012.40
2019-02-22T09:21:04.519Z,1012.44
2019-02-22T09:22:04.560Z,1012.43
2019-02-22T09:23:07.279Z,1012.55
2019-02-22T09:24:04.654Z,1012.58
2019-02-22T09:25:04.681Z,1012.59
2019-02-22T09:26:04.721Z,1012.64
2019-02-22T09:27:04.762Z,1012.60
2019-02-22T09:28:04.802Z,1012.62
2019-02-22T09:29:04.845Z,1012.63
2019-02-22T09:30:04.884Z,1012.63
2019-02-22T09:31:04.925Z,1012.68
2019-02-22T09:32:04.963Z,1012.70
2019-02-22T09:33:05.010Z,1012.73
2019-02-22T09:34:05.043Z,1012.76
2019-02-22T09:35:05.085Z,1012.76
2019-02-22T09:36:05.126Z,1012.72
2019-02-22T09:37:05.165Z,1012.73
2019-02-22T09:38:05.206Z,1012.72
2019-02-22T09:39:05.250Z,1012.85
2019-02-22T09:40:05.289Z,1012.81
2019-02-22T09:41:05.325Z,1012.86
2019-02-22T09:42:05.366Z,1012.86
2019-02-22T09:43:05.406Z,1012.86
2019-02-22T09:44:05.448Z,1012.84
2019-02-22T09:45:05.487Z,1012.86
2019-02-22T09:46:05.528Z,1012.87
2019-02-22T09:47:05.567Z,1012.92
2019-02-22T09:48:05.613Z,1012.94
2019-02-22T09:49:05.648Z,1012.97
2019-02-22T09:50:05.691Z,1012.97
2019-02-22T09:51:05.729Z,1013.02
2019-02-22T09:52:05.771Z,1013.06
2019-02-22T09:53:05.813Z,1013.05
2019-02-22T09:54:05.850Z,1013.05
2019-02-22T09:55:05.892Z,1013.09
2019-02-22T09:56:05.931Z,1013.12
2019-02-22T09:57:05.972Z,1013.14
2019-02-22T09:58:06.016Z,1013.16
2019-02-22T09:59:06.053Z,1013.13
2019-02-22T10:00:06.094Z,1013.15
2019-02-22T10:01:06.135Z,1013.13
2019-02-22T10:02:06.180Z,1013.12
2019-02-22T10:03:06.217Z,1013.16
2019-02-22T10:04:06.255Z,1013.18
2019-02-22T10:05:06.304Z,1013.13
2019-02-22T10:06:06.338Z,1013.16
2019-02-22T10:07:06.378Z,1013.13
2019-02-22T10:08:06.424Z,1013.12
2019-02-22T10:09:06.461Z,1013.13
2019-02-22T10:10:06.496Z,1013.17
2019-02-22T10:11:06.543Z,1013.20
2019-02-22T10:12:06.606Z,1013.16
2019-02-22T10:13:06.631Z,1013.24
2019-02-22T10:14:07.197Z,1013.21
2019-02-22T10:15:06.727Z,1013.20
2019-02-22T10:16:06.739Z,1013.21
2019-02-22T10:17:06.776Z,1013.22
2019-02-22T10:18:06.818Z,1013.25
2019-02-22T10:19:06.857Z,1013.19
2019-02-22T10:20:06.912Z,1013.24
2019-02-22T10:21:06.945Z,1013.24
2019-02-22T10:22:07.039Z,1013.29
2019-02-22T10:23:07.017Z,1013.30
2019-02-22T10:24:07.058Z,1013.29
2019-02-22T10:25:07.099Z,1013.26
2019-02-22T10:26:07.142Z,1013.33
2019-02-22T10:27:07.180Z,1013.35
2019-02-22T10:28:17.396Z,1013.32
2019-02-22T10:29:07.262Z,1013.37
2019-02-22T10:30:07.302Z,1013.36
2019-02-22T10:31:07.344Z,1013.40
2019-02-22T10:32:07.383Z,1013.36
2019-02-22T10:33:07.423Z,1013.36
2019-02-22T10:34:07.474Z,1013.40
2019-02-22T10:35:07.597Z,1013.39
2019-02-22T10:36:07.547Z,1013.43
2019-02-22T10:37:07.584Z,1013.44
2019-02-22T10:38:07.625Z,1013.45
2019-02-22T10:39:07.665Z,1013.48
2019-02-22T10:40:07.707Z,1013.45
2019-02-22T10:41:07.749Z,1013.47
2019-02-22T10:42:07.791Z,1013.50
2019-02-22T10:43:07.827Z,1013.51
2019-02-22T10:44:17.462Z,1013.55
2019-02-22T10:45:07.913Z,1013.55
2019-02-22T10:46:07.951Z,1013.54
2019-02-22T10:47:07.993Z,1013.60
2019-02-22T10:48:08.039Z,1013.55
2019-02-22T10:49:08.075Z,1013.57
2019-02-22T10:50:08.165Z,1013.58
2019-02-22T10:51:08.155Z,1013.56
2019-02-22T10:52:08.196Z,1013.58
2019-02-22T10:53:08.235Z,1013.55
2019-02-22T10:54:08.276Z,1013.57
2019-02-22T10:55:08.329Z,1013.61
2019-02-22T10:56:08.365Z,1013.63
2019-02-22T10:57:08.397Z,1013.65
2019-02-22T10:58:08.444Z,1013.63
2019-02-22T10:59:08.482Z,1013.62
2019-02-22T11:00:08.523Z,1013.64
2019-02-22T11:01:08.561Z,1013.64
2019-02-22T11:02:08.607Z,1013.63
2019-02-22T11:03:08.645Z,1013.59
2019-02-22T11:04:08.686Z,1013.57
2019-02-22T11:05:08.734Z,1013.61
2019-02-22T11:06:08.766Z,1013.66
2019-02-22T11:07:08.827Z,1013.62
2019-02-22T11:08:08.858Z,1013.64
2019-02-22T11:09:08.887Z,1013.62
2019-02-22T11:10:08.932Z,1013.63
2019-02-22T11:11:08.992Z,1013.63
2019-02-22T11:12:09.012Z,1013.66
2019-02-22T11:13:09.051Z,1013.66
2019-02-22T11:14:09.091Z,1013.67
2019-02-22T11:15:09.142Z,1013.70
2019-02-22T11:16:09.173Z,1013.69
2019-02-22T11:17:09.279Z,1013.68
2019-02-22T11:18:09.265Z,1013.71
2019-02-22T11:19:09.301Z,1013.69
2019-02-22T11:20:09.347Z,1013.71
2019-02-22T11:21:09.377Z,1013.71
2019-02-22T11:22:09.420Z,1013.75
2019-02-22T11:23:09.458Z,1013.74
2019-02-22T11:24:09.502Z,1013.78
2019-02-22T11:25:09.539Z,1013.80
2019-02-22T11:26:09.587Z,1013.79
2019-02-22T11:27:09.623Z,1013.85
2019-02-22T11:28:09.663Z,1013.82
2019-02-22T11:29:09.704Z,1013.88
2019-02-22T11:30:09.753Z,1013.94
2019-02-22T11:31:09.786Z,1013.93
2019-02-22T11:32:09.830Z,1013.97
2019-02-22T11:33:09.867Z,1013.96
2019-02-22T11:34:09.907Z,1014.00
2019-02-22T11:35:09.948Z,1014.03
2019-02-22T11:36:10.003Z,1014.03
2019-02-22T11:37:10.033Z,1014.09
2019-02-22T11:38:10.127Z,1014.08
2019-02-22T11:39:10.126Z,1014.08
2019-02-22T11:40:10.155Z,1014.09
2019-02-22T11:41:10.196Z,1014.12
2019-02-22T11:42:10.240Z,1014.11
2019-02-22T11:43:10.277Z,1014.08
2019-02-22T11:44:10.319Z,1014.05
2019-02-22T11:45:10.358Z,1014.10
2019-02-22T11:46:10.400Z,1014.08
2019-02-22T11:47:10.441Z,1014.09
2019-02-22T11:48:10.485Z,1014.09
2019-02-22T11:49:10.524Z,1014.08
2019-02-22T11:50:10.566Z,1014.02
2019-02-22T11:51:10.615Z,1014.04
2019-02-22T11:52:10.648Z,1014.04
2019-02-22T11:53:10.688Z,1014.06
2019-02-22T11:54:10.730Z,1014.01
2019-02-22T11:55:10.952Z,1014.00
2019-02-22T11:56:10.812Z,1014.03
2019-02-22T11:57:10.857Z,1014.05
2019-02-22T11:58:10.896Z,1014.06
2019-02-22T11:59:10.937Z,1014.13
2019-02-22T12:00:10.979Z,1014.13
2019-02-22T12:01:11.020Z,1014.16
2019-02-22T12:02:11.066Z,1014.17
2019-02-22T12:03:23.841Z,1014.16
2019-02-22T12:04:11.144Z,1014.15
2019-02-22T12:05:11.185Z,1014.15
2019-02-22T12:06:11.227Z,1014.22